Time;durP1;ratioP1;P1;durP2;ratioP2;P2;SDS_P1;SDS_P2;PMS_P1;PMS_P2;Temp;Humidity;BMP_temperature;BMP_pressure;BME280_temperature;BME280_humidity;BME280_pressure;Samples;Min_cycle;Max_cycle;Signal;HPM_P1;HPM_P2
2023/09/18 00:01:00;;;;;;;7.82;6.90;;;19.10;99.90;;;;;;5015053;28;20042;-79
2023/09/18 00:03:27;;;;;;;7.72;7.03;;;19.10;99.90;;;;;;5016039;28;20519;-78
2023/09/18 00:05:53;;;;;;;7.75;7.05;;;19.10;99.90;;;;;;4997328;28;20029;-78
2023/09/18 00:08:20;;;;;;;7.80;7.10;;;19.10;99.90;;;;;;5000182;28;20044;-78
2023/09/18 00:10:53;;;;;;;9.93;8.93;;;19.10;99.90;;;;;;4999411;28;20036;-78
2023/09/18 00:13:20;;;;;;;9.85;8.85;;;19.00;99.90;;;;;;4998933;28;20380;-78
2023/09/18 00:15:48;;;;;;;9.50;8.63;;;19.00;99.90;;;;;;5027683;28;20048;-78
2023/09/18 00:18:15;;;;;;;8.85;8.05;;;19.00;99.90;;;;;;5013158;28;20471;-78
2023/09/18 00:20:42;;;;;;;8.05;7.30;;;19.00;99.90;;;;;;5010143;28;20392;-78
2023/09/18 00:23:09;;;;;;;9.38;8.48;;;19.00;99.90;;;;;;4999557;28;20286;-77
2023/09/18 00:25:36;;;;;;;9.20;8.40;;;19.00;99.90;;;;;;4979681;28;20034;-78
2023/09/18 00:28:03;;;;;;;8.75;7.95;;;19.00;99.90;;;;;;5000168;28;20041;-78
2023/09/18 00:30:30;;;;;;;7.05;6.35;;;19.00;99.90;;;;;;5030429;28;21848;-78
2023/09/18 00:32:56;;;;;;;8.50;7.70;;;19.00;99.90;;;;;;5014452;28;20022;-78
2023/09/18 00:35:23;;;;;;;7.45;6.85;;;19.00;99.90;;;;;;5017173;28;20033;-78
2023/09/18 00:37:50;;;;;;;8.60;7.80;;;19.00;99.90;;;;;;5014496;28;20044;-79
2023/09/18 00:40:16;;;;;;;8.32;7.53;;;19.00;99.90;;;;;;4998089;28;20037;-77
2023/09/18 00:42:43;;;;;;;8.05;7.25;;;19.00;99.90;;;;;;5014737;28;20033;-78
2023/09/18 00:45:10;;;;;;;6.95;6.38;;;19.00;99.90;;;;;;5010204;28;20030;-78
2023/09/18 00:47:37;;;;;;;7.43;6.72;;;19.00;99.90;;;;;;4989973;28;20502;-78
2023/09/18 00:50:06;;;;;;;7.18;6.57;;;19.00;99.90;;;;;;4998263;28;20042;-79
2023/09/18 00:52:33;;;;;;;12.00;7.00;;;19.00;99.90;;;;;;4996838;28;20053;-79
2023/09/18 00:55:00;;;;;;;8.43;7.57;;;19.00;99.90;;;;;;5002039;28;20053;-77
2023/09/18 00:57:28;;;;;;;7.47;6.78;;;19.00;99.90;;;;;;4998325;28;20044;-78
2023/09/18 00:59:54;;;;;;;10.02;9.02;;;19.00;99.90;;;;;;4998633;28;20383;-77
2023/09/18 01:02:20;;;;;;;9.75;8.80;;;19.00;99.90;;;;;;5015449;28;20041;-78
2023/09/18 01:04:49;;;;;;;10.15;9.15;;;19.00;99.90;;;;;;5015312;28;20026;-78
2023/09/18 01:07:15;;;;;;;9.38;8.48;;;19.00;99.90;;;;;;4998902;28;20376;-78
2023/09/18 01:09:43;;;;;;;9.90;8.90;;;19.00;99.90;;;;;;5015875;28;20037;-77
2023/09/18 01:12:47;;;;;;;7.93;7.13;;;19.00;99.90;;;;;;5017019;28;20056;-78
2023/09/18 01:15:32;;;;;;;9.10;8.00;;;19.00;99.90;;;;;;5012263;28;20041;-77
2023/09/18 01:17:59;;;;;;;9.23;8.30;;;19.00;99.90;;;;;;5015535;28;20443;-77
2023/09/18 01:20:27;;;;;;;9.32;8.52;;;18.90;99.90;;;;;;4997568;28;20036;-77
2023/09/18 01:22:53;;;;;;;10.55;9.52;;;18.90;99.90;;;;;;5013997;28;20440;-77
2023/09/18 01:25:20;;;;;;;9.20;8.30;;;18.90;99.90;;;;;;5000298;28;20040;-78
2023/09/18 01:27:48;;;;;;;10.23;9.27;;;18.90;99.90;;;;;;5014864;28;20504;-78
2023/09/18 01:30:15;;;;;;;8.38;7.68;;;18.90;99.90;;;;;;5030875;28;20029;-78
2023/09/18 01:32:44;;;;;;;8.80;8.00;;;18.90;99.90;;;;;;5013700;28;20048;-79
2023/09/18 01:35:12;;;;;;;12.30;9.88;;;18.90;99.90;;;;;;5016925;28;20022;-79
2023/09/18 01:37:40;;;;;;;9.50;8.63;;;18.90;99.90;;;;;;5015211;28;20048;-77
2023/09/18 01:40:08;;;;;;;8.88;8.00;;;18.90;99.90;;;;;;4980000;28;20045;-78
2023/09/18 01:42:35;;;;;;;12.55;9.82;;;18.90;99.90;;;;;;4997752;28;20052;-78
2023/09/18 01:45:02;;;;;;;11.73;10.63;;;18.90;99.90;;;;;;4981798;28;20034;-78
2023/09/18 01:47:31;;;;;;;11.82;10.77;;;18.90;99.90;;;;;;5003224;28;20392;-77
2023/09/18 01:49:57;;;;;;;13.15;11.85;;;18.90;99.90;;;;;;4977425;28;20598;-79
2023/09/18 01:52:23;;;;;;;11.18;10.05;;;18.90;99.90;;;;;;4997584;28;20045;-78
2023/09/18 01:54:50;;;;;;;9.02;8.15;;;19.00;99.90;;;;;;4965231;28;20041;-77
2023/09/18 01:57:16;;;;;;;9.63;8.73;;;19.00;99.90;;;;;;5005840;28;20037;-77
2023/09/18 01:59:44;;;;;;;11.00;9.60;;;19.00;99.90;;;;;;4978193;28;20406;-78
2023/09/18 02:02:12;;;;;;;11.88;10.65;;;18.90;99.90;;;;;;5013617;28;20084;-78
2023/09/18 02:04:38;;;;;;;13.05;11.85;;;19.00;99.90;;;;;;5011022;28;20042;-77
2023/09/18 02:07:05;;;;;;;13.52;11.55;;;19.00;99.90;;;;;;4986394;28;20049;-78
2023/09/18 02:09:32;;;;;;;12.48;11.27;;;19.00;99.90;;;;;;4971359;28;20017;-78
2023/09/18 02:11:58;;;;;;;11.77;10.57;;;19.00;99.90;;;;;;4993252;28;20412;-77
2023/09/18 02:14:24;;;;;;;9.95;9.05;;;19.00;99.90;;;;;;4996166;28;20045;-78
2023/09/18 02:16:51;;;;;;;8.98;7.28;;;19.00;99.90;;;;;;4997112;28;20544;-77
2023/09/18 02:19:20;;;;;;;11.50;9.73;;;19.00;99.90;;;;;;5004015;28;20047;-78
2023/09/18 02:21:46;;;;;;;9.93;9.02;;;19.00;99.90;;;;;;5012457;28;20049;-78
2023/09/18 02:24:13;;;;;;;9.70;8.80;;;18.90;99.90;;;;;;5013374;28;20033;-78
2023/09/18 02:26:39;;;;;;;9.13;8.23;;;19.00;99.90;;;;;;4996670;28;20519;-78
2023/09/18 02:29:07;;;;;;;8.90;8.00;;;19.00;99.90;;;;;;4997961;28;20037;-78
2023/09/18 02:31:34;;;;;;;8.60;7.82;;;19.00;99.90;;;;;;4993790;28;20029;-78
2023/09/18 02:34:00;;;;;;;8.73;7.93;;;19.00;99.90;;;;;;4970855;28;20030;-78
2023/09/18 02:36:26;;;;;;;8.35;6.78;;;19.00;99.90;;;;;;5015093;28;20033;-77
2023/09/18 02:38:53;;;;;;;7.90;7.15;;;19.00;99.90;;;;;;5013017;28;20653;-78
2023/09/18 02:41:19;;;;;;;8.45;7.55;;;19.00;99.90;;;;;;5013407;28;20041;-78
2023/09/18 02:43:46;;;;;;;7.90;7.13;;;19.10;99.90;;;;;;4997478;28;20049;-77
2023/09/18 02:46:13;;;;;;;7.82;7.13;;;19.10;99.90;;;;;;5012474;28;20030;-78
2023/09/18 02:48:39;;;;;;;8.50;7.70;;;19.10;99.90;;;;;;4980684;28;20033;-78
2023/09/18 02:51:06;;;;;;;7.65;6.95;;;19.10;99.90;;;;;;5012984;28;20616;-78
2023/09/18 02:53:32;;;;;;;8.10;7.40;;;19.10;99.90;;;;;;5012900;28;20028;-78
2023/09/18 02:55:59;;;;;;;7.07;6.50;;;19.10;99.90;;;;;;4981093;28;20030;-78
2023/09/18 02:58:29;;;;;;;8.73;7.65;;;19.10;99.90;;;;;;4998903;28;20038;-78
2023/09/18 03:01:00;;;;;;;8.90;8.10;;;19.10;99.90;;;;;;5011861;28;20045;-78
2023/09/18 03:03:27;;;;;;;9.27;8.23;;;19.10;99.90;;;;;;4980799;28;20392;-78
2023/09/18 03:06:04;;;;;;;9.13;8.25;;;19.10;99.90;;;;;;4998453;28;20029;-77
2023/09/18 03:08:31;;;;;;;8.05;7.35;;;19.10;99.90;;;;;;4986183;28;20456;-78
2023/09/18 03:10:58;;;;;;;8.00;7.20;;;19.20;99.90;;;;;;5017501;28;20037;-77
2023/09/18 03:13:27;;;;;;;8.43;7.63;;;19.20;99.90;;;;;;5002008;28;20041;-79
2023/09/18 03:15:56;;;;;;;6.43;5.82;;;19.20;99.90;;;;;;5016658;28;20033;-78
2023/09/18 03:18:23;;;;;;;6.78;6.18;;;19.10;99.90;;;;;;5000635;28;20385;-78
2023/09/18 03:20:49;;;;;;;7.65;6.78;;;19.10;99.90;;;;;;4999437;28;20053;-77
2023/09/18 03:23:17;;;;;;;7.75;6.93;;;19.10;99.90;;;;;;4977238;28;20046;-77
2023/09/18 03:25:44;;;;;;;6.57;5.93;;;19.10;99.90;;;;;;5015740;28;20030;-78
2023/09/18 03:28:10;;;;;;;7.68;6.93;;;19.10;99.90;;;;;;5000658;28;20568;-77
2023/09/18 03:30:37;;;;;;;7.20;6.20;;;19.10;99.90;;;;;;5015488;28;20500;-78
2023/09/18 03:33:03;;;;;;;6.65;6.05;;;19.10;99.90;;;;;;4999910;28;20341;-78
2023/09/18 03:35:32;;;;;;;6.70;5.93;;;19.10;99.90;;;;;;4986553;28;20025;-78
2023/09/18 03:37:59;;;;;;;7.72;6.85;;;19.20;99.90;;;;;;5018214;28;20030;-77
2023/09/18 03:40:25;;;;;;;8.93;7.47;;;19.20;99.90;;;;;;5015638;28;20076;-77
2023/09/18 03:42:52;;;;;;;8.13;7.30;;;19.20;99.90;;;;;;5015893;28;20033;-77
2023/09/18 03:45:19;;;;;;;7.38;6.60;;;19.20;99.90;;;;;;4999883;28;20340;-79
2023/09/18 03:47:49;;;;;;;10.00;8.00;;;19.30;99.90;;;;;;5033336;28;20441;-77
2023/09/18 03:50:16;;;;;;;9.38;8.10;;;19.30;99.90;;;;;;4982978;28;20037;-77
2023/09/18 03:52:43;;;;;;;8.50;7.07;;;19.30;99.90;;;;;;5000175;28;20563;-78
2023/09/18 03:55:09;;;;;;;6.78;6.18;;;19.30;99.90;;;;;;4969517;28;20467;-77
2023/09/18 03:57:36;;;;;;;7.20;6.32;;;19.30;99.90;;;;;;4982966;28;20032;-77
2023/09/18 04:00:07;;;;;;;7.38;6.65;;;19.30;99.90;;;;;;4956846;28;20488;-77
2023/09/18 04:02:39;;;;;;;7.68;6.95;;;19.40;99.90;;;;;;4995702;28;20044;-77
2023/09/18 04:05:06;;;;;;;7.18;6.50;;;19.30;99.90;;;;;;5000788;28;20044;-77
2023/09/18 04:07:33;;;;;;;6.25;5.75;;;19.30;99.90;;;;;;4998662;28;20353;-79
2023/09/18 04:10:03;;;;;;;5.75;5.07;;;19.30;99.90;;;;;;4999522;28;20032;-78
2023/09/18 04:12:30;;;;;;;7.28;6.57;;;19.30;99.90;;;;;;4997886;28;20076;-78
2023/09/18 04:14:56;;;;;;;6.72;5.90;;;19.30;99.90;;;;;;4997861;28;20640;-77
2023/09/18 04:17:23;;;;;;;6.47;5.80;;;19.30;99.90;;;;;;4997951;28;20049;-78
2023/09/18 04:19:49;;;;;;;8.45;6.60;;;19.30;99.90;;;;;;4982398;28;20369;-78
2023/09/18 04:22:16;;;;;;;7.25;6.55;;;19.30;99.90;;;;;;4998227;28;20045;-79
2023/09/18 04:24:42;;;;;;;7.18;6.07;;;19.30;99.90;;;;;;5018687;28;20045;-78
2023/09/18 04:27:10;;;;;;;7.35;6.70;;;19.20;99.90;;;;;;5000219;28;20025;-78
2023/09/18 04:29:36;;;;;;;8.40;7.35;;;19.20;99.90;;;;;;4999405;28;20033;-78
2023/09/18 04:32:04;;;;;;;7.80;6.18;;;19.20;99.90;;;;;;5015523;28;20033;-79
2023/09/18 04:34:31;;;;;;;6.30;5.70;;;19.20;99.90;;;;;;5014809;28;20052;-78
2023/09/18 04:36:57;;;;;;;6.00;5.45;;;19.20;99.90;;;;;;4998813;28;20367;-78
2023/09/18 04:39:24;;;;;;;7.15;5.93;;;19.20;99.90;;;;;;4999291;28;20026;-77
2023/09/18 04:41:50;;;;;;;5.97;5.40;;;19.20;99.90;;;;;;4998864;28;20492;-78
2023/09/18 04:44:17;;;;;;;5.93;5.38;;;19.20;99.90;;;;;;5016379;28;20041;-77
2023/09/18 04:46:44;;;;;;;6.47;5.47;;;19.20;99.90;;;;;;4994448;28;20040;-77
2023/09/18 04:49:12;;;;;;;5.95;5.43;;;19.20;99.90;;;;;;4997381;28;20025;-77
2023/09/18 04:51:39;;;;;;;5.88;5.28;;;19.20;99.90;;;;;;5012166;28;20042;-77
2023/09/18 04:54:06;;;;;;;5.43;5.03;;;19.10;99.90;;;;;;5028087;28;20044;-77
2023/09/18 04:56:33;;;;;;;5.93;5.07;;;19.10;99.90;;;;;;4999792;28;20030;-78
2023/09/18 04:58:59;;;;;;;7.95;7.10;;;19.10;99.90;;;;;;5014725;28;20037;-78
2023/09/18 05:01:26;;;;;;;7.05;6.38;;;19.10;99.90;;;;;;5012853;28;20033;-77
2023/09/18 05:03:53;;;;;;;9.32;8.00;;;19.00;99.90;;;;;;4998371;28;20096;-78
2023/09/18 05:06:20;;;;;;;9.63;7.90;;;19.00;99.90;;;;;;5013533;28;20495;-79
2023/09/18 05:08:47;;;;;;;10.90;7.90;;;19.00;99.90;;;;;;4991736;28;20490;-80
2023/09/18 05:11:13;;;;;;;8.10;7.30;;;19.10;99.90;;;;;;4996494;28;20037;-79
2023/09/18 05:13:40;;;;;;;6.30;5.47;;;19.10;99.90;;;;;;5000026;28;20025;-84
2023/09/18 05:16:09;;;;;;;7.97;6.05;;;19.10;99.90;;;;;;4975059;28;20029;-84
2023/09/18 05:18:37;;;;;;;10.90;7.07;;;19.20;99.90;;;;;;4973413;28;20042;-84
2023/09/18 05:21:04;;;;;;;7.45;6.47;;;19.20;99.90;;;;;;4975199;28;20504;-84
2023/09/18 05:23:31;;;;;;;9.80;8.10;;;19.20;99.90;;;;;;5000524;28;20468;-84
2023/09/18 05:25:59;;;;;;;7.95;7.05;;;19.30;99.90;;;;;;4974157;28;20034;-86
2023/09/18 05:28:26;;;;;;;9.30;7.55;;;19.30;99.90;;;;;;4996552;28;20037;-85
2023/09/18 05:30:52;;;;;;;9.63;6.43;;;19.30;99.90;;;;;;5012533;28;20042;-85
2023/09/18 05:33:20;;;;;;;8.70;6.35;;;19.30;99.90;;;;;;5002247;28;20030;-85
2023/09/18 05:35:46;;;;;;;7.07;4.93;;;19.30;99.90;;;;;;5019604;28;20037;-86
2023/09/18 05:38:13;;;;;;;6.13;5.47;;;19.30;99.90;;;;;;4983340;28;20377;-88
2023/09/18 05:40:41;;;;;;;6.85;5.68;;;19.30;99.90;;;;;;5015598;28;20048;-87
2023/09/18 05:43:08;;;;;;;5.80;5.13;;;19.30;99.90;;;;;;4999370;28;20037;-85
2023/09/18 05:45:34;;;;;;;7.25;4.85;;;19.30;99.90;;;;;;5000110;28;20147;-88
2023/09/18 05:48:07;;;;;;;9.25;6.43;;;19.30;99.90;;;;;;5002513;28;20385;-83
2023/09/18 05:50:35;;;;;;;7.43;6.63;;;19.20;99.90;;;;;;4999850;28;20037;-82
2023/09/18 05:53:05;;;;;;;9.85;7.70;;;19.20;99.90;;;;;;4994935;28;20030;-81
2023/09/18 05:55:33;;;;;;;8.35;5.95;;;19.20;99.90;;;;;;5014190;28;20907;-80
2023/09/18 05:58:00;;;;;;;7.68;6.30;;;19.20;99.90;;;;;;4979242;28;20040;-81
2023/09/18 06:00:27;;;;;;;6.47;5.75;;;19.20;99.90;;;;;;5010920;28;20057;-82
2023/09/18 06:02:53;;;;;;;8.95;6.00;;;19.30;99.90;;;;;;4952391;28;23734;-82
2023/09/18 06:05:21;;;;;;;9.85;7.00;;;19.30;99.90;;;;;;5014751;28;20041;-81
2023/09/18 06:07:51;;;;;;;6.68;6.05;;;19.30;99.90;;;;;;4976389;28;20033;-80
2023/09/18 06:10:18;;;;;;;4.97;4.53;;;19.30;99.90;;;;;;4993486;28;20029;-81
2023/09/18 06:12:45;;;;;;;6.00;5.10;;;19.40;99.90;;;;;;5012301;28;20034;-81
2023/09/18 06:15:12;;;;;;;5.03;4.57;;;19.40;99.90;;;;;;4997343;28;20029;-80
2023/09/18 06:17:40;;;;;;;5.88;5.00;;;19.40;99.90;;;;;;4996959;28;20029;-82
2023/09/18 06:20:12;;;;;;;7.60;6.80;;;19.50;99.90;;;;;;4990589;28;20025;-80
2023/09/18 06:22:40;;;;;;;6.85;5.93;;;19.50;99.90;;;;;;5011716;28;20610;-79
2023/09/18 06:25:07;;;;;;;8.00;7.20;;;19.50;99.90;;;;;;4973527;28;20052;-81
2023/09/18 06:27:36;;;;;;;6.85;6.15;;;19.50;99.90;;;;;;4975811;28;20630;-80
2023/09/18 06:30:06;;;;;;;7.57;6.70;;;19.50;99.90;;;;;;4994399;28;20033;-81
2023/09/18 06:32:33;;;;;;;7.93;6.20;;;19.60;99.90;;;;;;5012641;28;20026;-84
2023/09/18 06:35:00;;;;;;;7.85;6.85;;;19.60;99.90;;;;;;4971492;28;20461;-86
2023/09/18 06:37:26;;;;;;;9.13;7.20;;;19.70;99.90;;;;;;5010956;28;20032;-82
2023/09/18 06:39:53;;;;;;;9.82;7.50;;;19.80;99.90;;;;;;4982195;28;20469;-83
2023/09/18 06:42:19;;;;;;;9.15;7.28;;;19.80;99.90;;;;;;5017364;28;20029;-85
2023/09/18 06:44:53;;;;;;;7.82;7.00;;;19.80;99.90;;;;;;4986715;28;20103;-85
2023/09/18 06:47:19;;;;;;;8.63;7.10;;;19.80;99.90;;;;;;5002193;28;20463;-85
2023/09/18 06:49:47;;;;;;;12.40;8.55;;;19.90;99.90;;;;;;5002553;28;20033;-85
2023/09/18 06:52:13;;;;;;;8.65;7.03;;;19.90;99.90;;;;;;5000291;28;20227;-84
2023/09/18 06:54:40;;;;;;;9.32;6.60;;;19.80;99.90;;;;;;5001023;28;20033;-85
2023/09/18 06:57:07;;;;;;;11.52;9.20;;;19.90;99.90;;;;;;5033956;28;20033;-85
2023/09/18 06:59:33;;;;;;;8.60;7.25;;;19.90;99.90;;;;;;4999722;28;20039;-86
2023/09/18 07:02:01;;;;;;;8.32;7.63;;;19.90;99.90;;;;;;4984348;28;20041;-83
2023/09/18 07:04:27;;;;;;;8.55;6.30;;;19.90;99.90;;;;;;4983316;28;20028;-81
2023/09/18 07:06:54;;;;;;;10.63;8.27;;;19.90;99.90;;;;;;5002432;28;20037;-82
2023/09/18 07:09:23;;;;;;;10.38;7.57;;;19.90;99.90;;;;;;5017495;28;20025;-81
2023/09/18 07:11:50;;;;;;;7.75;6.20;;;19.90;99.90;;;;;;5013374;28;20025;-82
2023/09/18 07:14:16;;;;;;;8.93;6.43;;;20.00;99.90;;;;;;4971893;28;20504;-82
2023/09/18 07:16:43;;;;;;;9.63;6.60;;;20.00;99.90;;;;;;4986325;28;20044;-82
2023/09/18 07:19:11;;;;;;;6.68;5.22;;;20.00;99.90;;;;;;5002467;28;20029;-84
2023/09/18 07:21:40;;;;;;;6.78;5.75;;;20.00;99.90;;;;;;4999790;28;20040;-81
2023/09/18 07:24:07;;;;;;;5.95;4.28;;;20.10;99.90;;;;;;4983542;28;20479;-81
2023/09/18 07:26:33;;;;;;;6.00;3.50;;;20.10;99.90;;;;;;4984495;28;20036;-81
2023/09/18 07:29:01;;;;;;;4.78;3.70;;;20.10;99.90;;;;;;4985802;28;20385;-83
2023/09/18 07:31:27;;;;;;;6.40;3.60;;;20.10;99.90;;;;;;5016889;28;20029;-83
2023/09/18 07:33:53;;;;;;;6.35;3.35;;;20.20;99.90;;;;;;4985184;28;20029;-81
2023/09/18 07:36:20;;;;;;;3.53;3.15;;;20.20;99.90;;;;;;5018385;28;20395;-81
2023/09/18 07:38:47;;;;;;;5.00;3.13;;;20.20;99.90;;;;;;5003511;28;20026;-81
2023/09/18 07:41:15;;;;;;;4.40;3.15;;;20.30;99.90;;;;;;4984428;28;20042;-81
2023/09/18 07:43:41;;;;;;;6.20;3.20;;;20.30;99.90;;;;;;5001957;28;20037;-82
2023/09/18 07:46:08;;;;;;;5.68;3.15;;;20.30;99.90;;;;;;4984711;28;20379;-82
2023/09/18 07:48:35;;;;;;;3.10;2.60;;;20.30;99.90;;;;;;5000555;28;20471;-80
2023/09/18 07:51:01;;;;;;;4.07;2.65;;;20.30;99.90;;;;;;4953098;28;20473;-81
2023/09/18 07:53:27;;;;;;;2.97;2.70;;;20.30;99.90;;;;;;4994973;28;20056;-83
2023/09/18 07:55:58;;;;;;;3.20;1.98;;;20.30;99.90;;;;;;4995743;28;20042;-81
2023/09/18 07:58:27;;;;;;;3.17;2.35;;;20.30;99.90;;;;;;4986323;28;20029;-82
2023/09/18 08:00:55;;;;;;;2.75;2.45;;;20.30;99.90;;;;;;4984551;28;20034;-81
2023/09/18 08:03:22;;;;;;;4.20;2.58;;;20.30;99.90;;;;;;4999115;28;20392;-83
2023/09/18 08:05:57;;;;;;;2.75;2.22;;;20.30;99.90;;;;;;5001657;28;20044;-81
2023/09/18 08:08:24;;;;;;;3.55;1.85;;;20.30;99.90;;;;;;4976888;28;20033;-81
2023/09/18 08:10:51;;;;;;;2.85;2.10;;;20.30;99.90;;;;;;4971822;28;20052;-80
2023/09/18 08:13:19;;;;;;;4.00;2.15;;;20.30;99.90;;;;;;4977000;28;20472;-80
2023/09/18 08:15:46;;;;;;;3.15;1.75;;;20.40;99.90;;;;;;4998994;28;20498;-81
2023/09/18 08:18:15;;;;;;;2.42;1.88;;;20.40;99.90;;;;;;5002211;28;20394;-81
2023/09/18 08:20:43;;;;;;;3.17;1.40;;;20.50;99.90;;;;;;5016144;28;20033;-81
2023/09/18 08:23:10;;;;;;;3.55;1.92;;;20.50;99.90;;;;;;4985554;28;20025;-82
2023/09/18 08:25:36;;;;;;;2.53;1.50;;;20.60;99.90;;;;;;5005169;28;21245;-81
2023/09/18 08:28:04;;;;;;;3.42;1.55;;;20.70;99.90;;;;;;5018004;28;20036;-83
2023/09/18 08:30:31;;;;;;;3.55;1.33;;;20.70;99.90;;;;;;5014450;28;20044;-84
2023/09/18 08:32:57;;;;;;;2.03;1.45;;;20.70;99.90;;;;;;5016083;28;20372;-82
2023/09/18 08:35:28;;;;;;;2.13;1.30;;;20.80;99.90;;;;;;4999354;28;20167;-81
2023/09/18 08:37:56;;;;;;;3.10;1.20;;;20.80;99.90;;;;;;5000032;28;20038;-81
2023/09/18 08:40:23;;;;;;;2.72;1.15;;;20.80;99.90;;;;;;5000454;28;20135;-81
2023/09/18 08:42:53;;;;;;;3.58;1.33;;;20.90;99.90;;;;;;4999372;28;20021;-84
2023/09/18 08:45:48;;;;;;;3.20;1.27;;;20.90;99.90;;;;;;4999692;28;20365;-81
2023/09/18 08:48:15;;;;;;;2.85;1.23;;;21.00;99.90;;;;;;4983909;28;20041;-82
2023/09/18 08:50:42;;;;;;;1.80;0.88;;;21.20;99.90;;;;;;4996093;28;20052;-81
2023/09/18 08:53:08;;;;;;;1.60;0.98;;;21.30;99.90;;;;;;5010773;28;20041;-83
2023/09/18 08:55:35;;;;;;;3.42;0.80;;;21.40;99.90;;;;;;5014604;28;20029;-82
2023/09/18 08:58:02;;;;;;;2.45;1.02;;;21.40;99.90;;;;;;4999878;28;20029;-81
2023/09/18 09:00:28;;;;;;;2.35;1.10;;;21.30;99.90;;;;;;4980805;28;20114;-82
2023/09/18 09:02:55;;;;;;;1.75;0.95;;;21.30;99.90;;;;;;5013931;28;20037;-82
2023/09/18 09:05:22;;;;;;;2.05;1.05;;;21.30;99.90;;;;;;5015596;28;20052;-81
2023/09/18 09:07:51;;;;;;;5.15;1.25;;;21.40;99.90;;;;;;4995604;28;20048;-83
2023/09/18 09:10:18;;;;;;;3.55;1.00;;;21.40;99.90;;;;;;5015241;28;20029;-81
2023/09/18 09:12:58;;;;;;;1.50;0.90;;;21.40;99.90;;;;;;4999891;28;20337;-81
2023/09/18 09:15:28;;;;;;;3.08;0.93;;;21.50;99.90;;;;;;4995536;28;20034;-81
2023/09/18 09:18:06;;;;;;;2.08;0.73;;;21.50;99.90;;;;;;5018862;28;20041;-84
2023/09/18 09:20:33;;;;;;;2.38;0.68;;;21.60;99.90;;;;;;5016390;28;20041;-84
2023/09/18 09:23:01;;;;;;;2.05;0.95;;;21.70;99.90;;;;;;5016771;28;20037;-81
2023/09/18 09:25:31;;;;;;;1.30;0.70;;;21.70;99.90;;;;;;5000088;28;20400;-84
2023/09/18 09:27:59;;;;;;;3.00;0.80;;;21.70;99.90;;;;;;5016032;28;20025;-81
2023/09/18 09:30:27;;;;;;;4.57;0.90;;;21.80;99.90;;;;;;4996776;28;20049;-80
2023/09/18 09:32:55;;;;;;;2.38;0.70;;;21.80;99.90;;;;;;5014681;28;20057;-81
2023/09/18 09:35:23;;;;;;;2.90;1.10;;;21.90;99.90;;;;;;4984038;28;20042;-82
2023/09/18 09:37:51;;;;;;;2.10;0.65;;;21.90;99.90;;;;;;4998786;28;20037;-80
2023/09/18 09:40:20;;;;;;;2.35;0.60;;;21.90;99.90;;;;;;5015057;28;20629;-80
2023/09/18 09:42:46;;;;;;;2.67;0.73;;;22.10;99.90;;;;;;5015164;28;20581;-79
2023/09/18 09:45:18;;;;;;;1.40;0.70;;;22.40;99.90;;;;;;5013414;28;20025;-79
2023/09/18 09:47:45;;;;;;;2.67;1.10;;;22.40;99.90;;;;;;4998609;28;20037;-82
2023/09/18 09:50:15;;;;;;;3.88;0.80;;;22.50;99.90;;;;;;5014766;28;20029;-80
2023/09/18 09:52:50;;;;;;;2.42;0.90;;;22.50;99.90;;;;;;4998623;28;20033;-80
2023/09/18 09:55:25;;;;;;;3.05;0.80;;;22.40;99.90;;;;;;5015339;28;20193;-82
2023/09/18 09:57:57;;;;;;;2.55;0.75;;;22.30;99.90;;;;;;5014640;28;20510;-80
2023/09/18 10:00:30;;;;;;;2.17;0.75;;;22.30;99.90;;;;;;4999116;28;20022;-79
2023/09/18 10:02:58;;;;;;;;;;;22.40;99.90;;;;;;5015625;28;20037;-80
2023/09/18 10:05:36;;;;;;;1.73;0.60;;;22.60;99.90;;;;;;4998921;28;19916;-80
2023/09/18 10:08:26;;;;;;;1.23;0.60;;;22.90;99.90;;;;;;4996391;28;20033;-80
2023/09/18 10:10:56;;;;;;;2.78;0.68;;;23.10;99.90;;;;;;5008189;28;20053;-80
2023/09/18 10:13:31;;;;;;;1.80;0.50;;;23.30;99.90;;;;;;4979381;28;20414;-79
2023/09/18 10:16:02;;;;;;;3.13;0.60;;;23.60;99.90;;;;;;4983134;28;20329;-78
2023/09/18 10:18:36;;;;;;;3.03;0.70;;;23.90;99.90;;;;;;4988611;28;20037;-79
2023/09/18 10:21:34;;;;;;;2.60;0.65;;;24.30;99.90;;;;;;4996900;28;20304;-80
2023/09/18 10:24:31;;;;;;;4.13;0.93;;;24.60;99.90;;;;;;5014280;28;20053;-81
2023/09/18 10:27:00;;;;;;;2.42;0.60;;;24.70;99.90;;;;;;5014532;28;20041;-80
2023/09/18 10:29:30;;;;;;;1.63;0.50;;;24.50;99.90;;;;;;4997451;28;20383;-82
2023/09/18 10:31:56;;;;;;;2.80;0.95;;;24.20;99.90;;;;;;5012603;28;20030;-83
2023/09/18 10:34:24;;;;;;;1.25;0.60;;;23.90;99.90;;;;;;5013884;28;20034;-81
2023/09/18 10:36:53;;;;;;;3.58;1.15;;;23.60;99.90;;;;;;4997197;28;20041;-83
2023/09/18 10:39:23;;;;;;;2.83;1.52;;;23.40;99.90;;;;;;5014008;28;20030;-81
2023/09/18 10:41:53;;;;;;;3.25;0.80;;;23.20;99.90;;;;;;4996293;28;20396;-82
2023/09/18 10:44:19;;;;;;;3.15;0.80;;;23.20;99.90;;;;;;5014728;28;20498;-81
2023/09/18 10:46:54;;;;;;;5.47;1.00;;;23.30;99.90;;;;;;5014395;28;20034;-82
2023/09/18 10:49:21;;;;;;;3.10;1.02;;;23.50;99.90;;;;;;4997625;28;20037;-80
2023/09/18 10:51:48;;;;;;;2.13;0.90;;;23.60;99.90;;;;;;5012434;28;20029;-80
2023/09/18 10:54:19;;;;;;;2.00;0.70;;;23.60;99.90;;;;;;5014274;28;20066;-81
2023/09/18 10:56:46;;;;;;;3.92;1.33;;;23.60;99.90;;;;;;5014204;28;20052;-85
2023/09/18 10:59:14;;;;;;;4.32;1.08;;;23.70;99.90;;;;;;5014151;28;20495;-81
2023/09/18 11:01:42;;;;;;;2.97;1.00;;;23.80;99.90;;;;;;5009102;28;20049;-83
2023/09/18 11:04:10;;;;;;;3.80;1.00;;;23.60;99.90;;;;;;4970925;28;20037;-82
2023/09/18 11:06:54;;;;;;;3.63;0.98;;;23.50;99.90;;;;;;5012462;28;20046;-81
2023/09/18 11:09:27;;;;;;;3.35;1.02;;;23.40;99.90;;;;;;4982577;28;20376;-84
2023/09/18 11:12:04;;;;;;;2.47;0.80;;;23.30;99.90;;;;;;5011693;28;20034;-81
2023/09/18 11:15:00;;;;;;;3.25;1.02;;;23.20;99.90;;;;;;5012868;28;20348;-84
2023/09/18 11:17:40;;;;;;;3.50;1.30;;;23.20;99.90;;;;;;5010794;28;20036;-86
2023/09/18 11:20:12;;;;;;;2.47;1.10;;;23.10;99.90;;;;;;5001197;28;20063;-83
2023/09/18 11:22:45;;;;;;;2.85;1.25;;;23.10;99.90;;;;;;4980130;28;20045;-83
2023/09/18 11:25:47;;;;;;;2.28;0.80;;;22.90;99.90;;;;;;4995793;28;20144;-85
2023/09/18 11:28:25;;;;;;;2.25;0.90;;;23.00;99.90;;;;;;4990894;28;20368;-84
2023/09/18 11:30:58;;;;;;;3.33;0.90;;;22.90;99.90;;;;;;5000994;28;20037;-82
2023/09/18 11:33:31;;;;;;;2.08;1.00;;;23.00;99.90;;;;;;5016576;28;20602;-82
2023/09/18 11:36:11;;;;;;;2.33;0.90;;;23.10;99.90;;;;;;5022461;28;20033;-82
2023/09/18 11:38:53;;;;;;;4.55;1.65;;;23.00;99.90;;;;;;4984543;28;20412;-82
2023/09/18 11:41:27;;;;;;;1.52;0.90;;;22.90;99.90;;;;;;5012302;28;20338;-81
2023/09/18 11:44:16;;;;;;;2.28;1.10;;;22.70;99.90;;;;;;5006719;28;20029;-81
2023/09/18 11:46:51;;;;;;;2.10;1.00;;;22.60;99.90;;;;;;4998432;28;20372;-83
2023/09/18 11:49:23;;;;;;;3.10;1.00;;;22.40;99.90;;;;;;4998598;28;20950;-81
2023/09/18 11:51:50;;;;;;;2.20;1.00;;;22.30;99.90;;;;;;4982223;28;20029;-81
2023/09/18 11:54:18;;;;;;;3.03;0.90;;;22.20;99.90;;;;;;4999450;28;20392;-81
2023/09/18 11:56:44;;;;;;;4.88;1.30;;;22.20;99.90;;;;;;5015511;28;20483;-81
2023/09/18 11:59:12;;;;;;;2.72;1.10;;;22.10;99.90;;;;;;5015338;28;20041;-81
2023/09/18 12:01:46;;;;;;;3.67;1.15;;;22.50;99.90;;;;;;4981478;28;20407;-81
2023/09/18 12:04:13;;;;;;;2.75;1.23;;;23.70;99.90;;;;;;4994441;28;21108;-81
2023/09/18 12:06:40;;;;;;;4.05;1.35;;;25.10;99.90;;;;;;4983677;28;20477;-81
2023/09/18 12:09:08;;;;;;;3.72;1.20;;;26.40;99.90;;;;;;4999210;28;20029;-81
2023/09/18 12:11:35;;;;;;;5.72;1.08;;;27.40;99.90;;;;;;4981315;28;20048;-80
2023/09/18 12:14:04;;;;;;;2.85;0.88;;;28.20;99.90;;;;;;5015046;28;20037;-80
2023/09/18 12:16:30;;;;;;;4.80;0.98;;;28.80;99.90;;;;;;4997317;28;20033;-80
2023/09/18 12:18:59;;;;;;;2.63;0.90;;;29.30;99.90;;;;;;4982003;28;20034;-81
2023/09/18 12:21:25;;;;;;;5.38;0.95;;;29.80;99.90;;;;;;5014521;28;20064;-80
2023/09/18 12:23:52;;;;;;;4.18;1.10;;;29.90;99.90;;;;;;5013458;28;21833;-81
2023/09/18 12:26:20;;;;;;;4.72;0.95;;;30.10;99.90;;;;;;4982301;28;20029;-80
2023/09/18 12:28:46;;;;;;;1.48;0.60;;;30.50;99.90;;;;;;4981651;28;20495;-80
2023/09/18 12:31:13;;;;;;;3.67;0.90;;;30.90;99.90;;;;;;5000250;28;20045;-79
2023/09/18 12:33:41;;;;;;;2.88;0.98;;;31.40;99.90;;;;;;4996642;28;20048;-80
2023/09/18 12:36:08;;;;;;;3.05;0.73;;;31.70;99.90;;;;;;4983225;28;20488;-79
2023/09/18 12:38:36;;;;;;;4.18;1.00;;;31.90;99.90;;;;;;5011728;28;20033;-78
2023/09/18 12:41:07;;;;;;;2.40;0.85;;;32.10;99.20;;;;;;4985508;28;20384;-79
2023/09/18 12:43:39;;;;;;;4.88;0.90;;;32.20;98.60;;;;;;4994468;28;20029;-79
2023/09/18 12:46:06;;;;;;;3.95;1.02;;;31.90;98.30;;;;;;5015520;28;20499;-78
2023/09/18 12:48:46;;;;;;;2.83;0.90;;;31.90;97.90;;;;;;4997294;28;20037;-79
2023/09/18 12:51:14;;;;;;;4.50;0.80;;;31.70;97.70;;;;;;4992523;28;20044;-78
2023/09/18 12:53:41;;;;;;;3.10;0.90;;;31.50;97.50;;;;;;4977592;28;20029;-78